Time;durP1;ratioP1;P1;durP2;ratioP2;P2;SDS_P1;SDS_P2;PMS_P1;PMS_P2;Temp;Humidity;BMP_temperature;BMP_pressure;BME280_temperature;BME280_humidity;BME280_pressure;Samples;Min_cycle;Max_cycle;Signal;HPM_P1;HPM_P2
2023/05/01 12:34:04;;;;;;;4.15;1.90;;;;;;;23.96;36.40;99951.16;4456080;31;931524;-79
2023/05/01 12:36:53;;;;;;;4.28;2.20;;;;;;;23.96;36.40;99951.16;4475120;31;31867;-79
2023/05/01 12:39:43;;;;;;;3.78;2.12;;;;;;;24.21;37.60;99956.81;4488565;31;34627;-79
2023/05/01 12:42:29;;;;;;;3.33;2.00;;;;;;;24.58;35.17;99950.13;4488060;31;33731;-79
2023/05/01 12:45:16;;;;;;;3.10;1.90;;;;;;;25.31;31.53;99937.72;4478089;31;33185;-79
2023/05/01 12:48:09;;;;;;;3.27;1.93;;;;;;;24.94;33.97;99936.12;4486165;31;33211;-79
2023/05/01 12:50:55;;;;;;;3.70;1.80;;;;;;;25.01;33.29;99930.50;4477751;31;32726;-79
2023/05/01 12:53:43;;;;;;;3.45;1.65;;;;;;;25.07;34.20;99933.69;4474182;31;33140;-79
2023/05/01 12:56:29;;;;;;;4.07;1.83;;;;;;;25.70;32.75;99933.97;4474233;31;34845;-79
2023/05/01 12:59:24;;;;;;;4.00;1.90;;;;;;;26.07;33.13;99925.03;4475610;31;33284;-79
2023/05/01 13:02:14;;;;;;;3.30;1.90;;;;;;;25.41;31.36;99920.03;4488636;31;33137;-80
2023/05/01 13:05:09;;;;;;;4.55;1.85;;;;;;;25.97;31.50;99912.63;4469645;31;34107;-79
2023/05/01 13:07:55;;;;;;;3.58;2.10;;;;;;;23.96;32.96;99911.16;4467926;31;31998;-79
2023/05/01 13:10:43;;;;;;;3.22;1.80;;;;;;;25.56;32.28;99910.37;4486940;31;32782;-80
2023/05/01 13:13:30;;;;;;;4.62;1.90;;;;;;;26.28;32.21;99898.00;4477914;31;33658;-80
2023/05/01 13:16:17;;;;;;;3.90;1.77;;;;;;;25.93;33.17;99899.84;4474910;31;34041;-80
2023/05/01 13:19:05;;;;;;;5.15;2.00;;;;;;;26.23;30.63;99896.44;4487429;31;34552;-80
2023/05/01 13:21:51;;;;;;;3.62;1.85;;;;;;;25.85;32.63;99899.06;4464553;31;33154;-80
2023/05/01 13:24:43;;;;;;;3.85;1.98;;;;;;;26.03;32.12;99898.97;4470504;31;32997;-79
2023/05/01 13:27:30;;;;;;;3.35;1.70;;;;;;;25.61;33.59;99897.94;4487110;31;33320;-79
2023/05/01 13:30:21;;;;;;;3.80;1.67;;;;;;;26.27;32.20;99888.78;4459325;31;33078;-79
2023/05/01 13:33:09;;;;;;;3.62;1.90;;;;;;;26.36;30.75;99886.31;4474629;31;34652;-79
2023/05/01 13:35:56;;;;;;;3.03;1.55;;;;;;;26.41;31.72;99885.88;4466212;31;34148;-78
2023/05/01 13:38:45;;;;;;;3.30;1.53;;;;;;;26.26;30.87;99873.13;4476151;31;33995;-79
2023/05/01 13:41:33;;;;;;;3.20;1.65;;;;;;;26.14;32.35;99884.88;4469780;31;32737;-79
2023/05/01 13:44:21;;;;;;;5.43;1.60;;;;;;;26.38;31.40;99881.09;4480410;31;33745;-79
2023/05/01 13:47:07;;;;;;;2.95;1.95;;;;;;;26.57;29.35;99879.75;4461021;31;32155;-79
2023/05/01 13:49:54;;;;;;;3.22;1.70;;;;;;;26.27;29.74;99874.75;4470040;31;34458;-79
2023/05/01 13:52:45;;;;;;;1.95;1.55;;;;;;;25.67;31.74;99864.63;4465233;31;33174;-79
2023/05/01 13:55:32;;;;;;;3.15;1.70;;;;;;;26.43;30.96;99869.41;4460805;31;32954;-79
2023/05/01 13:58:18;;;;;;;3.28;1.60;;;;;;;26.54;31.59;99862.94;4459701;31;33768;-79
2023/05/01 14:01:13;;;;;;;2.72;1.62;;;;;;;27.06;29.82;99857.22;4477380;31;33655;-79
2023/05/01 14:04:00;;;;;;;4.70;1.58;;;;;;;26.97;29.54;99860.50;4474944;31;33054;-79
2023/05/01 14:06:47;;;;;;;2.47;1.53;;;;;;;27.22;29.78;99857.47;4457482;31;33066;-79
2023/05/01 14:09:38;;;;;;;2.50;1.48;;;;;;;27.45;29.23;99864.44;4477124;31;34302;-79
2023/05/01 14:12:30;;;;;;;3.17;1.60;;;;;;;27.47;28.91;99856.37;4458294;31;34427;-80
2023/05/01 14:15:16;;;;;;;3.12;1.70;;;;;;;27.17;28.94;99852.28;4476795;31;33695;-79
2023/05/01 14:18:06;;;;;;;3.17;1.50;;;;;;;27.34;27.57;99851.28;4453672;31;34485;-80
2023/05/01 14:20:52;;;;;;;2.62;1.60;;;;;;;27.64;29.42;99849.72;4475994;31;33257;-80
2023/05/01 14:23:40;;;;;;;2.80;1.50;;;;;;;27.41;28.23;99841.16;4474439;31;33932;-79
2023/05/01 14:26:27;;;;;;;1.98;1.30;;;;;;;27.24;28.64;99845.81;4463958;31;33019;-79
2023/05/01 14:29:25;;;;;;;2.95;1.65;;;;;;;27.48;28.71;99843.91;4463245;31;33543;-80
2023/05/01 14:32:12;;;;;;;2.33;1.30;;;;;;;27.37;29.19;99833.56;4474791;31;33401;-80
2023/05/01 14:34:58;;;;;;;2.15;1.33;;;;;;;27.66;29.32;99838.81;4464453;31;32458;-79
2023/05/01 14:37:45;;;;;;;3.80;1.80;;;;;;;27.14;28.16;99831.41;4459508;31;33370;-79
2023/05/01 14:40:32;;;;;;;2.95;1.80;;;;;;;27.13;28.04;99823.41;4474736;31;33023;-79
2023/05/01 14:43:23;;;;;;;2.60;1.35;;;;;;;27.05;28.82;99816.25;4475669;31;31985;-80
2023/05/01 14:46:11;;;;;;;2.67;1.50;;;;;;;26.99;28.53;99815.91;4466950;31;34423;-79
2023/05/01 14:48:59;;;;;;;4.67;1.50;;;;;;;26.96;28.06;99815.97;4475474;31;33610;-79
2023/05/01 14:51:46;;;;;;;3.10;1.30;;;;;;;27.19;28.11;99816.13;4467366;31;33205;-80
2023/05/01 14:54:35;;;;;;;3.07;1.30;;;;;;;26.87;27.46;99817.25;4451895;31;34246;-80
2023/05/01 14:57:21;;;;;;;2.40;1.30;;;;;;;26.55;28.03;99813.94;4451540;31;35121;-80
2023/05/01 15:00:08;;;;;;;3.10;1.30;;;;;;;26.26;28.64;99822.59;4452680;31;34902;-80
2023/05/01 15:02:54;;;;;;;4.33;1.40;;;;;;;26.62;27.76;99811.06;4473094;31;31354;-80
2023/05/01 15:05:43;;;;;;;2.93;1.40;;;;;;;26.41;28.83;99818.47;4471464;31;33919;-81
2023/05/01 15:08:31;;;;;;;3.20;1.37;;;;;;;26.36;28.31;99815.31;4465606;31;35282;-79
2023/05/01 15:11:19;;;;;;;2.43;1.30;;;;;;;26.73;27.17;99810.97;4474172;31;33833;-81
2023/05/01 15:14:06;;;;;;;2.50;1.40;;;;;;;25.67;29.16;99809.34;4461954;31;32650;-80
2023/05/01 15:16:52;;;;;;;4.20;1.60;;;;;;;26.00;29.74;99810.75;4457590;31;34660;-80
2023/05/01 15:19:38;;;;;;;4.27;1.37;;;;;;;24.91;30.42;99802.41;4475645;31;34144;-80
2023/05/01 15:22:25;;;;;;;2.65;1.45;;;;;;;25.61;30.14;99810.16;4476716;31;36259;-80
2023/05/01 15:25:13;;;;;;;4.18;1.40;;;;;;;25.16;30.52;99812.75;4473743;31;34234;-80
2023/05/01 15:28:02;;;;;;;3.40;1.47;;;;;;;25.53;29.38;99793.38;4473227;31;33592;-81
2023/05/01 15:30:50;;;;;;;2.70;1.40;;;;;;;25.73;29.22;99796.47;4470457;31;34562;-81
2023/05/01 15:33:37;;;;;;;2.70;1.27;;;;;;;25.45;29.16;99799.44;4463248;31;31857;-79
2023/05/01 15:36:23;;;;;;;2.53;1.40;;;;;;;24.93;29.56;99797.16;4476280;31;34141;-79
2023/05/01 15:39:12;;;;;;;4.30;1.42;;;;;;;24.02;31.32;99797.63;4476137;31;34243;-79
2023/05/01 15:41:59;;;;;;;2.83;1.33;;;;;;;24.31;31.64;99798.44;4476559;31;35102;-80
2023/05/01 15:44:46;;;;;;;4.10;1.40;;;;;;;24.65;30.23;99792.47;4464241;31;32622;-79
2023/05/01 15:47:33;;;;;;;2.50;1.40;;;;;;;24.33;31.08;99795.25;4464701;31;33203;-81
2023/05/01 15:50:19;;;;;;;3.20;1.48;;;;;;;24.46;30.80;99799.28;4478426;31;35320;-81
2023/05/01 15:53:07;;;;;;;3.28;1.30;;;;;;;24.54;31.65;99800.06;4475645;31;33401;-80
2023/05/01 15:55:56;;;;;;;2.80;1.37;;;;;;;24.34;30.71;99797.66;4476853;31;33040;-81
2023/05/01 15:58:43;;;;;;;3.75;1.50;;;;;;;24.17;30.92;99798.44;4475855;31;31498;-79
2023/05/01 16:01:31;;;;;;;3.27;1.80;;;;;;;24.02;31.49;99792.03;4472069;31;32099;-79
2023/05/01 16:04:18;;;;;;;3.90;1.65;;;;;;;24.02;31.13;99789.22;4463646;31;32427;-79
2023/05/01 16:07:05;;;;;;;5.75;2.00;;;;;;;23.92;32.92;99787.22;4475273;31;34830;-80
2023/05/01 16:09:51;;;;;;;3.12;1.40;;;;;;;23.61;33.05;99794.34;4476076;31;31720;-80
2023/05/01 16:12:38;;;;;;;4.25;1.77;;;;;;;23.86;32.61;99792.41;4463290;31;33838;-79
2023/05/01 16:15:24;;;;;;;4.07;1.70;;;;;;;23.79;33.07;99796.03;4466500;31;32944;-79
2023/05/01 16:18:20;;;;;;;3.03;1.67;;;;;;;23.70;34.09;99794.75;4466594;31;33771;-79
2023/05/01 16:21:12;;;;;;;4.50;1.60;;;;;;;23.12;33.50;99791.75;4468649;31;33078;-75
2023/05/01 16:24:00;;;;;;;4.87;1.70;;;;;;;22.55;34.36;99790.63;4468599;31;33762;-75
2023/05/01 16:26:47;;;;;;;3.17;1.75;;;;;;;22.34;35.53;99783.69;4480069;31;33405;-75
2023/05/01 16:29:33;;;;;;;4.23;1.70;;;;;;;22.59;34.06;99780.25;4459783;31;33284;-75
2023/05/01 16:32:20;;;;;;;3.70;1.87;;;;;;;22.40;34.53;99776.56;4480802;31;33872;-75
2023/05/01 16:35:11;;;;;;;5.68;1.90;;;;;;;22.31;34.24;99776.06;4469165;31;32070;-75
2023/05/01 16:37:58;;;;;;;4.07;1.97;;;;;;;22.38;35.57;99775.34;4462002;31;35046;-76
2023/05/01 16:40:47;;;;;;;3.35;1.60;;;;;;;21.58;37.52;99783.34;4482058;31;33623;-75
2023/05/01 16:43:34;;;;;;;3.60;1.77;;;;;;;22.12;35.23;99776.28;4477359;31;33427;-75
2023/05/01 16:46:20;;;;;;;4.62;1.80;;;;;;;21.64;36.95;99776.25;4474328;31;33538;-76
2023/05/01 16:49:11;;;;;;;2.83;1.50;;;;;;;21.81;35.22;99780.41;4486087;31;33922;-77
2023/05/01 16:51:57;;;;;;;3.90;1.60;;;;;;;21.55;36.72;99788.50;4465794;31;34832;-76
2023/05/01 16:54:47;;;;;;;4.22;1.75;;;;;;;21.87;35.46;99790.81;4484124;31;34194;-74
2023/05/01 16:57:33;;;;;;;4.25;1.95;;;;;;;21.72;36.45;99794.66;4472294;31;33828;-76
2023/05/01 17:00:20;;;;;;;6.43;2.00;;;;;;;21.87;35.33;99784.44;4484831;31;34714;-76
2023/05/01 17:03:06;;;;;;;3.65;1.70;;;;;;;21.55;35.75;99788.50;4458398;31;33377;-76
2023/05/01 17:05:53;;;;;;;4.50;1.80;;;;;;;21.82;34.47;99788.37;4473696;31;32842;-76
2023/05/01 17:08:39;;;;;;;2.80;1.60;;;;;;;21.32;37.16;99790.59;4470478;31;33437;-76
2023/05/01 17:11:26;;;;;;;4.97;1.73;;;;;;;21.57;35.42;99788.09;4462697;31;35564;-76
2023/05/01 17:14:15;;;;;;;3.73;1.50;;;;;;;21.54;34.66;99788.88;4459359;31;34532;-76
2023/05/01 17:17:01;;;;;;;3.12;1.70;;;;;;;21.16;35.22;99787.19;4474778;31;33296;-75
2023/05/01 17:19:52;;;;;;;4.25;1.50;;;;;;;21.40;34.94;99783.94;4471152;31;33513;-74
2023/05/01 17:22:38;;;;;;;3.22;1.65;;;;;;;21.34;35.01;99786.25;4476441;31;34182;-74
2023/05/01 17:25:25;;;;;;;4.07;1.50;;;;;;;21.42;34.37;99784.34;4470915;31;34123;-75
2023/05/01 17:28:11;;;;;;;5.97;1.67;;;;;;;20.95;35.10;99773.81;4474037;31;33223;-76
2023/05/01 17:30:57;;;;;;;4.63;1.60;;;;;;;21.17;35.73;99774.88;4463587;31;34126;-76
2023/05/01 17:33:44;;;;;;;3.20;1.97;;;;;;;21.04;34.95;99775.13;4476358;31;34820;-75
2023/05/01 17:36:31;;;;;;;5.18;1.73;;;;;;;21.07;35.63;99773.56;4454420;31;33868;-75
2023/05/01 17:39:20;;;;;;;3.50;1.77;;;;;;;20.89;35.64;99776.12;4466112;31;33251;-76
2023/05/01 17:42:07;;;;;;;4.80;1.62;;;;;;;20.84;35.68;99782.00;4467401;31;34408;-75
2023/05/01 17:44:54;;;;;;;3.55;1.70;;;;;;;20.79;35.72;99783.12;4466116;31;33718;-75
2023/05/01 17:47:41;;;;;;;3.62;1.80;;;;;;;20.77;35.10;99776.34;4464425;31;33687;-75
2023/05/01 17:50:28;;;;;;;2.95;1.60;;;;;;;20.73;35.77;99778.28;4475896;31;33352;-75
2023/05/01 17:53:14;;;;;;;4.77;1.50;;;;;;;20.74;35.51;99779.87;4469923;31;32912;-75
2023/05/01 17:56:01;;;;;;;4.37;1.40;;;;;;;20.54;36.43;99779.97;4464177;31;30532;-75
2023/05/01 17:58:47;;;;;;;3.62;1.50;;;;;;;20.52;36.36;99775.94;4476591;31;33730;-75
2023/05/01 18:01:34;;;;;;;3.55;1.70;;;;;;;20.63;35.69;99780.53;4468148;31;34237;-75
2023/05/01 18:04:21;;;;;;;5.85;2.10;;;;;;;20.51;36.03;99780.69;4475877;31;34440;-75
2023/05/01 18:07:07;;;;;;;4.95;1.92;;;;;;;20.49;36.12;99785.03;4466730;31;33568;-75
2023/05/01 18:09:54;;;;;;;5.72;2.10;;;;;;;20.50;35.83;99781.88;4462134;31;33295;-75
2023/05/01 18:12:40;;;;;;;4.43;2.10;;;;;;;20.54;35.89;99781.97;4464302;31;33118;-74
2023/05/01 18:15:26;;;;;;;4.85;2.12;;;;;;;20.32;36.01;99783.56;4475675;31;34703;-74
2023/05/01 18:18:13;;;;;;;4.12;1.92;;;;;;;20.07;36.44;99775.66;4466235;31;34136;-75
2023/05/01 18:20:59;;;;;;;3.80;1.98;;;;;;;20.12;36.34;99772.56;4478232;31;33518;-74
2023/05/01 18:23:45;;;;;;;3.67;1.85;;;;;;;20.17;36.36;99786.13;4462328;31;33272;-75
2023/05/01 18:26:35;;;;;;;3.10;1.87;;;;;;;19.98;36.58;99780.66;4476705;31;33606;-74
2023/05/01 18:29:21;;;;;;;5.45;1.80;;;;;;;20.02;36.14;99778.72;4473005;31;37663;-74
2023/05/01 18:32:09;;;;;;;4.82;2.00;;;;;;;20.03;36.30;99780.31;4467583;31;33335;-75
2023/05/01 18:34:58;;;;;;;4.57;1.90;;;;;;;19.95;36.45;99784.16;4466146;31;33367;-74
2023/05/01 18:37:45;;;;;;;4.75;2.00;;;;;;;19.69;37.06;99788.47;4475333;31;32237;-74
2023/05/01 18:40:31;;;;;;;5.50;2.30;;;;;;;19.63;36.98;99781.56;4475851;31;34664;-75
2023/05/01 18:43:18;;;;;;;5.18;2.50;;;;;;;19.62;37.19;99788.31;4457001;31;33721;-74
2023/05/01 18:46:05;;;;;;;5.55;2.47;;;;;;;19.61;37.14;99792.28;4465004;31;32882;-74
2023/05/01 18:48:51;;;;;;;5.53;2.33;;;;;;;19.42;37.82;99792.28;4468494;31;34673;-75
2023/05/01 18:51:37;;;;;;;5.30;2.25;;;;;;;19.28;37.99;99795.59;4465366;31;35062;-74
2023/05/01 18:54:24;;;;;;;5.43;2.15;;;;;;;19.38;37.53;99802.50;4463045;31;33466;-75
2023/05/01 18:57:10;;;;;;;4.87;2.20;;;;;;;19.25;37.86;99796.31;4464343;31;31817;-82
2023/05/01 18:59:57;;;;;;;5.90;2.10;;;;;;;19.03;38.75;99811.72;4475586;31;34677;-82
2023/05/01 19:02:49;;;;;;;4.60;2.08;;;;;;;19.09;38.58;99810.25;4474476;31;33764;-81
2023/05/01 19:05:36;;;;;;;5.90;2.15;;;;;;;19.25;38.35;99807.44;4457433;31;33549;-82
2023/05/01 19:08:23;;;;;;;7.10;2.78;;;;;;;18.77;40.06;99815.91;4468113;31;31616;-80
2023/05/01 19:11:09;;;;;;;5.55;2.28;;;;;;;19.13;39.05;99808.38;4462405;31;33216;-81
2023/05/01 19:13:57;;;;;;;5.37;2.20;;;;;;;19.12;39.88;99817.84;4476401;31;33874;-81
2023/05/01 19:16:45;;;;;;;4.28;2.30;;;;;;;18.66;40.73;99821.19;4457424;31;33352;-81
2023/05/01 19:19:31;;;;;;;5.65;2.78;;;;;;;18.43;41.91;99815.47;4473522;31;34293;-81
2023/05/01 19:22:18;;;;;;;5.30;2.65;;;;;;;18.31;41.70;99815.59;4475959;31;33264;-80
2023/05/01 19:25:04;;;;;;;5.95;2.70;;;;;;;18.31;41.31;99821.13;4468534;31;34086;-80
2023/05/01 19:27:51;;;;;;;5.03;2.55;;;;;;;18.25;41.84;99817.03;4475257;31;33187;-81
2023/05/01 19:30:38;;;;;;;5.37;2.40;;;;;;;18.54;40.70;99812.97;4464915;31;31410;-81
2023/05/01 19:33:24;;;;;;;7.03;2.83;;;;;;;18.38;40.78;99814.94;4459887;31;33725;-80
2023/05/01 19:36:11;;;;;;;5.87;2.70;;;;;;;18.33;41.65;99824.38;4474374;31;33886;-81
2023/05/01 19:38:57;;;;;;;5.05;2.65;;;;;;;18.19;42.49;99812.91;4476753;31;33747;-80
2023/05/01 19:41:43;;;;;;;6.70;2.90;;;;;;;18.25;43.19;99814.25;4475466;31;33199;-80
2023/05/01 19:44:30;;;;;;;4.73;2.50;;;;;;;18.26;43.44;99813.09;4474874;31;32209;-80
2023/05/01 19:47:16;;;;;;;5.78;2.72;;;;;;;18.24;43.90;99815.41;4476878;31;33771;-80
2023/05/01 19:50:03;;;;;;;5.97;3.00;;;;;;;17.94;45.47;99817.81;4476265;31;34584;-81
2023/05/01 19:52:50;;;;;;;6.05;2.90;;;;;;;17.59;46.48;99812.06;4467064;31;31717;-81
2023/05/01 19:55:38;;;;;;;5.45;2.90;;;;;;;17.60;46.65;99816.47;4460231;31;34441;-81
2023/05/01 19:58:26;;;;;;;6.37;2.90;;;;;;;17.42;48.31;99818.75;4468862;31;33708;-81
2023/05/01 20:01:12;;;;;;;4.90;2.53;;;;;;;17.48;47.90;99815.38;4475892;31;31991;-80
2023/05/01 20:03:59;;;;;;;6.25;2.55;;;;;;;17.34;47.43;99828.81;4465701;31;34164;-80
2023/05/01 20:06:45;;;;;;;4.82;2.42;;;;;;;17.31;46.99;99829.53;4466071;31;31933;-81
2023/05/01 20:09:32;;;;;;;5.57;2.10;;;;;;;17.09;47.48;99817.81;4475052;31;34068;-80
2023/05/01 20:12:21;;;;;;;4.90;2.30;;;;;;;17.15;46.09;99820.34;4476944;31;33246;-80
2023/05/01 20:15:08;;;;;;;5.70;1.98;;;;;;;17.22;46.50;99826.09;4475192;31;31900;-81
2023/05/01 20:17:54;;;;;;;4.57;1.90;;;;;;;17.16;46.35;99814.47;4476662;31;32220;-79
2023/05/01 20:20:41;;;;;;;3.87;1.90;;;;;;;16.98;47.06;99822.22;4467513;31;33709;-78
2023/05/01 20:23:28;;;;;;;6.07;1.98;;;;;;;16.97;47.21;99823.38;4470141;31;34000;-79
2023/05/01 20:26:14;;;;;;;5.03;2.10;;;;;;;16.87;47.74;99826.63;4477957;31;32601;-81
2023/05/01 20:29:00;;;;;;;4.30;1.75;;;;;;;16.70;47.78;99821.31;4476695;31;33303;-80
2023/05/01 20:31:50;;;;;;;3.60;1.60;;;;;;;16.71;47.33;99822.94;4456519;31;33724;-79
2023/05/01 20:34:36;;;;;;;3.70;1.80;;;;;;;16.70;47.98;99827.66;4476603;31;33707;-80
2023/05/01 20:37:23;;;;;;;4.75;1.80;;;;;;;16.56;48.32;99825.25;4466205;31;33672;-80
2023/05/01 20:40:11;;;;;;;6.87;1.98;;;;;;;16.55;49.15;99818.09;4476170;31;32125;-80
2023/05/01 20:42:58;;;;;;;4.50;2.05;;;;;;;16.53;48.07;99828.69;4475337;31;32430;-80
2023/05/01 20:45:44;;;;;;;3.90;1.90;;;;;;;16.32;48.97;99828.00;4466951;31;32582;-80
2023/05/01 20:48:31;;;;;;;4.35;2.00;;;;;;;16.60;48.16;99828.94;4475566;31;34145;-80
2023/05/01 20:51:17;;;;;;;6.10;2.22;;;;;;;15.98;50.67;99830.03;4477859;31;32381;-79
2023/05/01 20:54:04;;;;;;;6.07;2.25;;;;;;;15.71;53.86;99835.06;4480308;31;34731;-79
2023/05/01 20:56:51;;;;;;;4.12;2.08;;;;;;;15.51;57.39;99835.84;4494842;31;33366;-79
2023/05/01 20:59:38;;;;;;;5.47;2.23;;;;;;;15.87;59.08;99840.72;4493615;31;33287;-79
2023/05/01 21:02:25;;;;;;;3.87;2.12;;;;;;;16.03;57.84;99843.66;4472104;31;33766;-79
2023/05/01 21:05:11;;;;;;;4.72;2.20;;;;;;;15.94;58.57;99834.66;4489161;31;34202;-79
2023/05/01 21:07:58;;;;;;;5.62;2.25;;;;;;;16.01;58.25;99837.66;4496031;31;33681;-79
2023/05/01 21:10:44;;;;;;;4.72;2.12;;;;;;;16.00;57.01;99838.81;4496265;31;32991;-79
2023/05/01 21:13:31;;;;;;;3.78;2.08;;;;;;;15.67;59.00;99836.03;4495969;31;33760;-79
2023/05/01 21:16:18;;;;;;;6.00;2.65;;;;;;;15.86;59.42;99843.84;4495802;31;37491;-78
2023/05/01 21:19:05;;;;;;;6.10;2.20;;;;;;;15.81;59.92;99836.56;4479696;31;33380;-79
2023/05/01 21:21:52;;;;;;;7.07;2.30;;;;;;;15.68;59.99;99843.19;4496155;31;33395;-78
2023/05/01 21:24:42;;;;;;;5.57;2.30;;;;;;;15.44;61.33;99847.44;4471466;31;33410;-78
2023/05/01 21:27:29;;;;;;;5.00;1.87;;;;;;;15.51;63.06;99849.66;4484207;31;34072;-79
2023/05/01 21:30:23;;;;;;;4.53;1.77;;;;;;;15.35;62.59;99843.16;4494542;31;33714;-79
2023/05/01 21:33:13;;;;;;;4.50;1.83;;;;;;;15.56;59.64;99846.69;4483206;31;34217;-78
2023/05/01 21:35:59;;;;;;;5.00;1.90;;;;;;;15.58;58.00;99847.16;4480876;31;33430;-78
2023/05/01 21:38:45;;;;;;;4.20;1.85;;;;;;;15.32;59.74;99852.91;4495122;31;34119;-79
2023/05/01 21:41:32;;;;;;;3.78;2.17;;;;;;;15.10;61.09;99856.81;4482093;31;33224;-79
2023/05/01 21:44:18;;;;;;;3.95;1.70;;;;;;;15.06;62.82;99850.38;4484041;31;33294;-79
2023/05/01 21:47:05;;;;;;;4.15;1.77;;;;;;;15.34;61.70;99850.63;4496593;31;33409;-79
2023/05/01 21:49:55;;;;;;;5.20;1.87;;;;;;;15.40;59.48;99859.53;4483609;31;34593;-79
2023/05/01 21:52:43;;;;;;;5.10;1.87;;;;;;;15.07;61.64;99851.97;4492607;31;34562;-79
2023/05/01 21:55:30;;;;;;;4.60;1.80;;;;;;;15.24;61.13;99851.03;4482429;31;32976;-78
2023/05/01 21:58:16;;;;;;;4.05;1.70;;;;;;;15.36;60.83;99847.53;4484093;31;34721;-79
2023/05/01 22:01:03;;;;;;;5.82;2.30;;;;;;;15.20;61.68;99853.66;4496125;31;35095;-79
2023/05/01 22:03:50;;;;;;;3.85;1.90;;;;;;;15.52;59.03;99851.28;4482493;31;34104;-79
2023/05/01 22:06:36;;;;;;;6.65;1.90;;;;;;;15.25;60.31;99858.16;4483442;31;33233;-79
2023/05/01 22:09:23;;;;;;;5.03;2.08;;;;;;;15.15;60.82;99859.38;4492461;31;34730;-79
2023/05/01 22:12:09;;;;;;;4.72;2.08;;;;;;;15.11;62.04;99852.91;4481087;31;34114;-78
2023/05/01 22:14:56;;;;;;;3.62;1.70;;;;;;;15.11;63.30;99852.09;4483498;31;33668;-78
2023/05/01 22:17:43;;;;;;;4.72;1.90;;;;;;;14.90;64.33;99857.63;4495683;31;33335;-78
2023/05/01 22:20:30;;;;;;;3.67;1.90;;;;;;;14.48;68.33;99852.78;4495559;31;34392;-78
2023/05/01 22:23:17;;;;;;;5.05;2.40;;;;;;;13.89;75.78;99859.00;4494701;31;34800;-79
2023/05/01 22:26:03;;;;;;;4.12;2.30;;;;;;;13.71;86.30;99849.13;4483191;31;33664;-78
2023/05/01 22:28:50;;;;;;;5.37;2.37;;;;;;;14.30;84.33;99846.53;4495664;31;33323;-79
2023/05/01 22:31:37;;;;;;;5.10;2.60;;;;;;;14.73;79.77;99841.97;4479893;31;33893;-78
2023/05/01 22:34:23;;;;;;;6.17;2.60;;;;;;;14.69;80.57;99841.84;4493135;31;34172;-79
2023/05/01 22:37:09;;;;;;;6.97;3.10;;;;;;;14.51;82.71;99848.53;4495094;31;33270;-79
2023/05/01 22:39:56;;;;;;;5.72;2.58;;;;;;;14.43;82.16;99854.91;4470160;31;33240;-78
2023/05/01 22:42:43;;;;;;;5.45;2.70;;;;;;;14.28;81.21;99848.00;4495458;31;34724;-78
2023/05/01 22:45:30;;;;;;;5.68;2.67;;;;;;;14.43;81.84;99838.38;4495230;31;33173;-78
2023/05/01 22:48:16;;;;;;;5.90;2.37;;;;;;;13.99;85.12;99843.25;4495187;31;34685;-79
2023/05/01 22:51:03;;;;;;;5.97;2.40;;;;;;;14.14;83.96;99845.47;4482733;31;33238;-79
2023/05/01 22:53:49;;;;;;;4.80;2.00;;;;;;;13.65;88.08;99836.69;4483348;31;34765;-79
2023/05/01 22:56:36;;;;;;;4.45;2.17;;;;;;;14.23;84.08;99835.22;4494862;31;33805;-79
2023/05/01 22:59:23;;;;;;;5.85;2.30;;;;;;;13.91;85.77;99837.41;4495711;31;33764;-78
2023/05/01 23:02:14;;;;;;;7.57;2.40;;;;;;;14.04;87.74;99837.56;4495545;31;33503;-78
2023/05/01 23:05:01;;;;;;;4.60;2.00;;;;;;;14.13;86.21;99839.16;4484434;31;33824;-78
2023/05/01 23:07:48;;;;;;;5.17;2.37;;;;;;;13.86;88.47;99836.78;4481620;31;33962;-78
2023/05/01 23:10:39;;;;;;;4.47;2.25;;;;;;;14.09;85.11;99835.44;4481500;31;33309;-78
2023/05/01 23:13:26;;;;;;;3.90;2.20;;;;;;;13.99;84.68;99841.31;4483492;31;33281;-78
2023/05/01 23:16:17;;;;;;;4.28;2.10;;;;;;;14.10;85.04;99842.56;4482519;31;33582;-78
2023/05/01 23:19:03;;;;;;;4.80;2.35;;;;;;;13.85;86.17;99847.00;4482831;31;33602;-79
2023/05/01 23:22:01;;;;;;;4.45;2.00;;;;;;;13.61;88.34;99835.72;4479686;31;34258;-78
2023/05/01 23:24:48;;;;;;;4.50;1.90;;;;;;;13.78;86.69;99841.19;4482555;31;33226;-79
2023/05/01 23:27:40;;;;;;;6.12;2.20;;;;;;;13.40;89.59;99836.38;4467872;31;33511;-78
2023/05/01 23:30:26;;;;;;;4.90;1.90;;;;;;;13.55;90.50;99831.50;4493931;31;35080;-78
2023/05/01 23:33:13;;;;;;;4.00;2.00;;;;;;;13.81;88.18;99843.31;4470794;31;33751;-78
2023/05/01 23:36:00;;;;;;;5.22;2.20;;;;;;;13.27;92.96;99840.94;4469677;31;34845;-79
2023/05/01 23:38:47;;;;;;;6.93;2.80;;;;;;;13.33;93.11;99836.06;4482199;31;33824;-78
2023/05/01 23:41:33;;;;;;;5.80;2.35;;;;;;;12.95;94.64;99842.19;4481068;31;35064;-78
2023/05/01 23:44:19;;;;;;;5.43;2.50;;;;;;;13.50;92.37;99838.81;4494510;31;33795;-78
2023/05/01 23:47:06;;;;;;;6.93;2.00;;;;;;;13.34;90.62;99837.69;4491003;31;33268;-78
2023/05/01 23:49:53;;;;;;;6.55;2.47;;;;;;;13.75;87.15;99841.87;4494514;31;33769;-78
2023/05/01 23:52:39;;;;;;;5.37;2.60;;;;;;;12.11;100.00;99837.72;4492657;31;34849;-78
2023/05/01 23:55:25;;;;;;;5.57;2.67;;;;;;;13.11;100.00;99836.19;4495379;31;34394;-78
2023/05/01 23:58:12;;;;;;;5.50;2.67;;;;;;;12.89;100.00;99837.94;4490409;31;33227;-78
